Welcome to our new website - Welkom op onze vernieuwde website - Bienvenue sur notre nouveau site web - Willkommen auf unserer neuen Website
Check our progress frequently. Prüfen Sie unsere Fortschritte regelmäßig. Consultez notre progression fréquemment. Komt u straks nog eens terug


Webcam Wortegem - Petegem  Webcam Wortegem - Petegem


Onweer radar Meer informatie blitzortung!


Regen radar Meer informatie rain snow radar


Bezoek ook deze websites:

Template documentation
and downloads

And another site



METAR rapporten vliegvelden


Warning: A non-numeric value encountered in /var/www/vhosts/manhaeghe.com/httpdocs/weather28/metar/metarDisplay.php on line 166

Warning: A non-numeric value encountered in /var/www/vhosts/manhaeghe.com/httpdocs/weather28/metar/metarDisplay.php on line 166
   
EHVK - Volkel Rnlafb, Netherlands
Afstand tot: ZW 18 km
Gewijzigd: 13-07-2020 19:55
Bewolking  
Bewolking  
   Wind: NNO 5.6 km/h
Wind: NNO 5.6 km/h
Temperatuur: 22°C
Dauwpunt: 10°C
Vochtigheid: 47%
Barometer: 1019 hPa
Bewolking: Bewolking
Zicht: meer dan 10 km
Bewolking: Grotendeels bewolkt 24000 ft,
Bewolking 36000 ft
EHVK 131755Z AUTO 02003KT 340V050 9999 BKN240 OVC360 22/10 Q1019 BLU
EDLV - Niederrhein, Germany
Afstand tot: ZO 25 km
Gewijzigd: 13-07-2020 19:50
Helder  
Helder  
   Wind: WNW 9.3 km/h
Wind: WNW 9.3 km/h
Temperatuur: 24°C
Dauwpunt: 8°C
Vochtigheid: 36%
Barometer: 1019 hPa
Zicht: meer dan 10 km
Bewolking: Helder
EDLV 131750Z 30005KT 270V330 CAVOK 24/08 Q1019
EHDL - Deelen Rnlafb, Netherlands
Afstand tot: N 35 km
Gewijzigd: 13-07-2020 19:55
Bewolking  
Bewolking  
   Wind: ZW 11.1 km/h
Wind: ZW 11.1 km/h
Temperatuur: 22°C
Dauwpunt: 9°C
Vochtigheid: 44%
Barometer: 1019 hPa
Bewolking: Bewolking
Zicht: meer dan 10 km
Bewolking: Licht bewolkt 21000 ft,
Bewolking 34000 ft
EHDL 131755Z AUTO 22006KT 190V290 9999 FEW210 OVC340 22/09 Q1019 BLU
EHEH - Eindhoven Rnlafb, Netherlands
Afstand tot: ZW 48 km
Gewijzigd: 13-07-2020 19:55
Bewolking  
Bewolking  
   Wind: WNW 9.3 km/h
Wind: WNW 9.3 km/h
Temperatuur: 23°C
Dauwpunt: 11°C
Vochtigheid: 47%
Barometer: 1019 hPa
Bewolking: Bewolking
Zicht: meer dan 10 km
Bewolking: Bewolking 22000 ft
EHEH 131755Z AUTO 30005KT 250V010 9999 OVC220 23/11 Q1019 BLU 31006KT CAVOK TEMPO VRB04KT
EHGR - Gilze-Rijen Rnla, Netherlands
Afstand tot: WZW 70 km
Gewijzigd: 13-07-2020 19:55
Bewolking  
Bewolking  
   Wind: NW 14.8 km/h
Wind: NW 14.8 km/h
Temperatuur: 22°C
Dauwpunt: 7°C
Vochtigheid: 38%
Barometer: 1020 hPa
Bewolking: Bewolking
Zicht: meer dan 10 km
Bewolking: Bewolking 32000 ft
EHGR 131755Z AUTO 31008KT 270V020 9999 OVC320 22/07 Q1020 BLU
EBBL - Kleine-Brogel(Ba, Belgium
Afstand tot: ZZW 71 km
Gewijzigd: 13-07-2020 19:55
Helder  
Helder  
   Wind: NW 5.6 km/h
Wind: NW 5.6 km/h
Temperatuur: 23°C
Dauwpunt: 7°C
Vochtigheid: 36%
Barometer: 1019 hPa
Bewolking: Helder
Zicht: meer dan 10 km
Bewolking: Helder
EBBL 131755Z AUTO 32003KT 9999 NCD 23/07 Q1019 BLU

Script ontwikkeld door  Saratoga-weather.org Aangepast voor de template door  Weerstation Leuven

U vindt ons ook hier:

Het Weer Aktueel

UK Metoffice

WeatherCloud

Apparatuur in gebruik:

Weerprogramma
Meteobridge

Meteobridge